Time;durP1;ratioP1;P1;durP2;ratioP2;P2;SDS_P1;SDS_P2;PMS_P1;PMS_P2;Temp;Humidity;BMP_temperature;BMP_pressure;BME280_temperature;BME280_humidity;BME280_pressure;Samples;Min_cycle;Max_cycle;Signal;HPM_P1;HPM_P2
2023/08/18 00:00:19;;;;;;;4.05;3.00;;;;;;;;;;5063353;28;20238;-33
2023/08/18 00:05:52;;;;;;;3.45;2.45;;;;;;;;;;5074208;28;20233;-30
2023/08/18 00:08:51;;;;;;;3.63;2.35;;;;;;;;;;5068577;28;20206;-32
2023/08/18 00:23:29;;;;;;;2.50;2.30;;;;;;;;;;5058911;28;20214;-32
2023/08/18 00:29:33;;;;;;;5.22;2.42;;;;;;;;;;5059552;28;20225;-34
2023/08/18 00:32:25;;;;;;;3.10;2.50;;;;;;;;;;5058505;28;20229;-30
2023/08/18 00:44:50;;;;;;;2.80;2.50;;;;;;;;;;5057613;28;20208;-31
2023/08/18 00:47:18;;;;;;;5.00;2.78;;;;;;;;;;5146695;22;20239;-32
2023/08/18 00:49:45;;;;;;;4.97;2.20;;;;;;;;;;5097277;27;20237;-30
2023/08/18 00:52:12;;;;;;;2.55;2.35;;;;;;;;;;5108096;28;20232;-30
2023/08/18 00:54:39;;;;;;;4.35;2.17;;;;;;;;;;5111571;28;20200;-28
2023/08/18 00:57:06;;;;;;;3.03;2.53;;;;;;;;;;5106526;28;20195;-25
2023/08/18 00:59:35;;;;;;;3.58;2.67;;;;;;;;;;5101359;28;20331;-29
2023/08/18 01:02:03;;;;;;;3.33;2.25;;;;;;;;;;5101836;27;20205;-27
2023/08/18 01:04:30;;;;;;;3.88;2.55;;;;;;;;;;5110669;28;20203;-29
2023/08/18 01:06:58;;;;;;;6.00;2.63;;;;;;;;;;5110099;28;20207;-31
2023/08/18 01:09:25;;;;;;;2.78;2.55;;;;;;;;;;5091247;28;20459;-28
2023/08/18 01:11:57;;;;;;;5.82;2.42;;;;;;;;;;5098668;28;20201;-31
2023/08/18 01:14:28;;;;;;;3.40;2.50;;;;;;;;;;5106706;28;20211;-31
2023/08/18 01:16:58;;;;;;;3.00;2.38;;;;;;;;;;5113534;28;20192;-27
2023/08/18 01:19:25;;;;;;;2.72;2.40;;;;;;;;;;5113489;28;20223;-28
2023/08/18 01:21:54;;;;;;;5.05;2.40;;;;;;;;;;5108494;28;20641;-32
2023/08/18 01:24:24;;;;;;;6.47;2.60;;;;;;;;;;5102645;28;20213;-31
2023/08/18 01:26:51;;;;;;;4.57;2.58;;;;;;;;;;5106679;27;20282;-31
2023/08/18 01:29:18;;;;;;;2.63;2.00;;;;;;;;;;5104115;27;20228;-31
2023/08/18 01:31:47;;;;;;;6.25;4.10;;;;;;;;;;5110200;28;20203;-30
2023/08/18 01:34:16;;;;;;;3.83;2.70;;;;;;;;;;5110537;28;20208;-30
2023/08/18 01:36:45;;;;;;;6.60;3.10;;;;;;;;;;5104624;28;20201;-29
2023/08/18 01:39:13;;;;;;;2.15;2.03;;;;;;;;;;5102971;28;20231;-29
2023/08/18 01:41:42;;;;;;;3.90;2.40;;;;;;;;;;5111626;28;20192;-30
2023/08/18 01:44:09;;;;;;;3.40;2.58;;;;;;;;;;5104804;28;20208;-29
2023/08/18 01:46:36;;;;;;;2.95;2.20;;;;;;;;;;5110908;28;20320;-29
2023/08/18 01:49:03;;;;;;;4.43;2.42;;;;;;;;;;5110244;28;20243;-27
2023/08/18 01:51:30;;;;;;;3.58;2.50;;;;;;;;;;5110861;28;20702;-28
2023/08/18 01:53:58;;;;;;;3.13;2.15;;;;;;;;;;5101752;28;20210;-30
2023/08/18 01:56:25;;;;;;;3.92;2.63;;;;;;;;;;5108341;28;20204;-32
2023/08/18 01:58:53;;;;;;;4.82;2.17;;;;;;;;;;5103848;28;20221;-32
2023/08/18 02:01:20;;;;;;;2.80;2.08;;;;;;;;;;5108104;28;20207;-30
2023/08/18 02:03:47;;;;;;;3.17;2.03;;;;;;;;;;5110443;28;20700;-30
2023/08/18 02:06:15;;;;;;;3.05;2.58;;;;;;;;;;5109847;28;20237;-32
2023/08/18 02:08:42;;;;;;;4.75;2.78;;;;;;;;;;5101461;28;20208;-31
2023/08/18 02:11:09;;;;;;;5.03;3.00;;;;;;;;;;5107065;28;20199;-29
2023/08/18 02:13:36;;;;;;;3.30;2.20;;;;;;;;;;5104755;28;20200;-29
2023/08/18 02:16:05;;;;;;;4.18;2.75;;;;;;;;;;5106351;28;20220;-27
2023/08/18 02:18:32;;;;;;;2.33;2.13;;;;;;;;;;5111627;28;20210;-28
2023/08/18 02:21:00;;;;;;;3.08;2.50;;;;;;;;;;5104037;28;20208;-28
2023/08/18 02:23:27;;;;;;;2.58;2.38;;;;;;;;;;5094928;28;20204;-31
2023/08/18 02:26:00;;;;;;;3.83;2.40;;;;;;;;;;5106663;28;20226;-29
2023/08/18 02:28:27;;;;;;;3.38;2.33;;;;;;;;;;5105294;28;20210;-29
2023/08/18 02:30:59;;;;;;;4.95;2.50;;;;;;;;;;5101283;28;20196;-31
2023/08/18 02:33:28;;;;;;;3.28;2.17;;;;;;;;;;5114006;28;20228;-29
2023/08/18 02:35:55;;;;;;;2.67;2.10;;;;;;;;;;5109977;28;20211;-28
2023/08/18 02:38:22;;;;;;;2.40;2.20;;;;;;;;;;5104376;28;20208;-30
2023/08/18 02:40:49;;;;;;;2.88;2.35;;;;;;;;;;5113940;28;20192;-29
2023/08/18 02:43:16;;;;;;;2.63;2.20;;;;;;;;;;5106609;28;20212;-28
2023/08/18 02:45:43;;;;;;;6.10;2.97;;;;;;;;;;5108542;28;20211;-26
2023/08/18 02:48:12;;;;;;;3.53;2.47;;;;;;;;;;5113476;28;20218;-31
2023/08/18 02:50:40;;;;;;;3.60;2.92;;;;;;;;;;5114194;28;20234;-29
2023/08/18 02:53:08;;;;;;;5.03;2.33;;;;;;;;;;5104280;28;20200;-27
2023/08/18 02:55:35;;;;;;;4.45;2.28;;;;;;;;;;5112759;28;20391;-27
2023/08/18 02:58:03;;;;;;;4.85;2.33;;;;;;;;;;5110310;28;20212;-30
2023/08/18 03:00:31;;;;;;;3.63;2.30;;;;;;;;;;5104618;28;20234;-27
2023/08/18 03:02:58;;;;;;;2.53;2.33;;;;;;;;;;5113123;28;20286;-28
2023/08/18 03:05:26;;;;;;;5.47;3.17;;;;;;;;;;5113263;28;20339;-28
2023/08/18 03:07:54;;;;;;;5.97;2.60;;;;;;;;;;5108586;28;20204;-30
2023/08/18 03:10:21;;;;;;;2.95;2.50;;;;;;;;;;5112924;28;20227;-31
2023/08/18 03:12:48;;;;;;;2.70;2.50;;;;;;;;;;5108899;28;20655;-31
2023/08/18 03:15:15;;;;;;;2.63;2.40;;;;;;;;;;5104511;28;20286;-32
2023/08/18 03:17:43;;;;;;;3.40;2.67;;;;;;;;;;5112874;28;20223;-30
2023/08/18 03:20:10;;;;;;;2.70;2.27;;;;;;;;;;5113336;28;20239;-29
2023/08/18 03:22:37;;;;;;;3.58;2.50;;;;;;;;;;5101481;28;20200;-29
2023/08/18 03:25:06;;;;;;;2.97;2.28;;;;;;;;;;5112773;28;20203;-32
2023/08/18 03:27:33;;;;;;;2.92;2.15;;;;;;;;;;5110999;28;20254;-30
2023/08/18 03:30:00;;;;;;;2.40;2.20;;;;;;;;;;5099718;28;20221;-27
2023/08/18 03:32:28;;;;;;;2.67;2.38;;;;;;;;;;5111792;28;20204;-31
2023/08/18 03:34:55;;;;;;;3.10;2.40;;;;;;;;;;5112928;28;20207;-31
2023/08/18 03:37:22;;;;;;;2.90;1.90;;;;;;;;;;5105981;28;20204;-28
2023/08/18 03:39:49;;;;;;;2.50;2.30;;;;;;;;;;5112478;28;20311;-28
2023/08/18 03:42:18;;;;;;;2.45;1.92;;;;;;;;;;5112483;28;20210;-28
2023/08/18 03:44:45;;;;;;;3.03;2.70;;;;;;;;;;5102340;28;20199;-28
2023/08/18 03:47:12;;;;;;;2.25;1.90;;;;;;;;;;5112262;28;20712;-30
2023/08/18 03:49:39;;;;;;;3.93;2.33;;;;;;;;;;5112857;28;20231;-28
2023/08/18 03:52:07;;;;;;;2.92;2.55;;;;;;;;;;5113182;28;20200;-27
2023/08/18 03:54:34;;;;;;;2.40;2.20;;;;;;;;;;5098318;28;20283;-30
2023/08/18 03:57:01;;;;;;;5.50;2.42;;;;;;;;;;5107542;28;20210;-30
2023/08/18 03:59:29;;;;;;;2.65;2.05;;;;;;;;;;5106668;28;20223;-29
2023/08/18 04:01:56;;;;;;;4.10;2.30;;;;;;;;;;5112252;28;20214;-29
2023/08/18 04:04:24;;;;;;;3.10;2.37;;;;;;;;;;5112935;28;20286;-27
2023/08/18 04:06:51;;;;;;;3.85;2.50;;;;;;;;;;5098218;28;20216;-30
2023/08/18 04:09:18;;;;;;;2.70;2.50;;;;;;;;;;5105182;28;20246;-30
2023/08/18 04:11:45;;;;;;;2.47;2.25;;;;;;;;;;5115344;28;20204;-29
2023/08/18 04:14:13;;;;;;;3.00;2.30;;;;;;;;;;5106185;28;20211;-26
2023/08/18 04:16:42;;;;;;;4.67;1.87;;;;;;;;;;5112851;28;20196;-30
2023/08/18 04:19:09;;;;;;;2.63;2.40;;;;;;;;;;5114752;28;20223;-26
2023/08/18 04:21:36;;;;;;;4.20;2.37;;;;;;;;;;5110908;28;20211;-28
2023/08/18 04:24:03;;;;;;;4.27;2.20;;;;;;;;;;5100934;28;20200;-29
2023/08/18 04:26:31;;;;;;;3.33;2.40;;;;;;;;;;5111337;28;20219;-29
2023/08/18 04:28:58;;;;;;;2.70;2.30;;;;;;;;;;5104545;28;20229;-28
2023/08/18 04:31:26;;;;;;;2.53;2.20;;;;;;;;;;5106867;28;20272;-30
2023/08/18 04:33:55;;;;;;;2.47;2.27;;;;;;;;;;5112890;28;20214;-30
2023/08/18 04:36:22;;;;;;;3.50;2.33;;;;;;;;;;5109605;28;20226;-28
2023/08/18 04:38:50;;;;;;;5.30;2.20;;;;;;;;;;5099118;28;20233;-30
2023/08/18 04:41:17;;;;;;;2.40;1.80;;;;;;;;;;5109710;28;20639;-26
2023/08/18 04:43:44;;;;;;;5.53;2.67;;;;;;;;;;5107117;28;20197;-30
2023/08/18 04:46:11;;;;;;;3.67;2.30;;;;;;;;;;5108928;28;20220;-27
2023/08/18 04:48:38;;;;;;;4.13;2.60;;;;;;;;;;5113793;28;20211;-30
2023/08/18 04:51:06;;;;;;;3.83;2.27;;;;;;;;;;5106134;28;20223;-28
2023/08/18 04:53:33;;;;;;;2.90;2.20;;;;;;;;;;5104898;28;20206;-30
2023/08/18 04:56:02;;;;;;;2.53;2.27;;;;;;;;;;5108344;28;20200;-26
2023/08/18 04:58:29;;;;;;;2.40;2.20;;;;;;;;;;5108219;28;20203;-28
2023/08/18 05:00:59;;;;;;;4.00;2.60;;;;;;;;;;5105341;28;20208;-29
2023/08/18 05:03:26;;;;;;;3.40;2.17;;;;;;;;;;5113009;28;20210;-25
2023/08/18 05:06:00;;;;;;;2.73;2.10;;;;;;;;;;5110445;28;20235;-27
2023/08/18 05:08:29;;;;;;;2.60;2.40;;;;;;;;;;5104546;28;20265;-32
2023/08/18 05:10:57;;;;;;;3.13;2.30;;;;;;;;;;5113033;28;20196;-28
2023/08/18 05:13:24;;;;;;;4.27;3.20;;;;;;;;;;5105877;28;20200;-31
2023/08/18 05:15:52;;;;;;;3.20;2.23;;;;;;;;;;5108788;28;20209;-29
2023/08/18 05:18:19;;;;;;;2.57;2.23;;;;;;;;;;5112685;28;20215;-27
2023/08/18 05:20:46;;;;;;;3.53;2.77;;;;;;;;;;5111849;28;20220;-31
2023/08/18 05:23:16;;;;;;;3.90;2.60;;;;;;;;;;5107697;28;20204;-31
2023/08/18 05:25:44;;;;;;;2.33;2.13;;;;;;;;;;5112792;28;20221;-33
2023/08/18 05:28:11;;;;;;;2.60;2.40;;;;;;;;;;5107746;28;20220;-30
2023/08/18 05:30:38;;;;;;;4.03;2.37;;;;;;;;;;5104397;28;20670;-32
2023/08/18 05:33:06;;;;;;;5.57;2.60;;;;;;;;;;5112672;28;20286;-28
2023/08/18 05:35:33;;;;;;;4.73;2.67;;;;;;;;;;5113100;28;20210;-31
2023/08/18 05:38:00;;;;;;;4.90;3.17;;;;;;;;;;5106335;28;20209;-29
2023/08/18 05:40:27;;;;;;;4.23;2.70;;;;;;;;;;5105119;28;20287;-26
2023/08/18 05:42:56;;;;;;;4.68;2.70;;;;;;;;;;5105183;28;20212;-34
2023/08/18 05:45:25;;;;;;;3.45;2.80;;;;;;;;;;5106819;28;20206;-28
2023/08/18 05:47:52;;;;;;;2.75;2.42;;;;;;;;;;5111835;28;20302;-30
2023/08/18 05:50:19;;;;;;;4.03;2.63;;;;;;;;;;5112772;28;20243;-28
2023/08/18 05:52:46;;;;;;;4.50;2.72;;;;;;;;;;5110109;28;20200;-27
2023/08/18 05:55:14;;;;;;;2.78;2.58;;;;;;;;;;5112338;28;20203;-28
2023/08/18 05:57:41;;;;;;;2.65;2.40;;;;;;;;;;5109900;28;20200;-29
2023/08/18 06:00:13;;;;;;;2.78;2.53;;;;;;;;;;5102060;28;20240;-28
2023/08/18 06:02:40;;;;;;;4.38;2.60;;;;;;;;;;5111609;28;20284;-29
2023/08/18 06:05:19;;;;;;;4.13;2.38;;;;;;;;;;5102651;28;20200;-29
2023/08/18 06:07:46;;;;;;;6.28;2.60;;;;;;;;;;5108447;28;20205;-30
2023/08/18 06:10:13;;;;;;;2.80;2.22;;;;;;;;;;5116026;28;20247;-31
2023/08/18 06:12:49;;;;;;;3.88;2.55;;;;;;;;;;5113473;28;20192;-28
2023/08/18 06:15:19;;;;;;;2.22;2.03;;;;;;;;;;5105514;28;20203;-32
2023/08/18 06:17:46;;;;;;;2.95;2.25;;;;;;;;;;5116112;28;20228;-30
2023/08/18 06:20:13;;;;;;;3.13;2.33;;;;;;;;;;5116627;28;20229;-30
2023/08/18 06:22:40;;;;;;;2.63;2.42;;;;;;;;;;5111033;28;20214;-29
2023/08/18 06:25:09;;;;;;;4.00;2.45;;;;;;;;;;5099436;28;20208;-30
2023/08/18 06:27:36;;;;;;;2.85;2.45;;;;;;;;;;5101216;28;20215;-30
2023/08/18 06:30:03;;;;;;;3.90;2.15;;;;;;;;;;5110797;28;20241;-30
2023/08/18 06:32:32;;;;;;;6.05;2.83;;;;;;;;;;5114823;28;20214;-29
2023/08/18 06:34:59;;;;;;;2.60;2.28;;;;;;;;;;5116149;28;20715;-32
2023/08/18 06:37:26;;;;;;;2.85;2.38;;;;;;;;;;5112262;28;20224;-32
2023/08/18 06:39:54;;;;;;;3.97;2.70;;;;;;;;;;5113727;28;20227;-33
2023/08/18 06:42:21;;;;;;;2.58;2.35;;;;;;;;;;5116227;28;20216;-31
2023/08/18 06:44:48;;;;;;;3.45;2.30;;;;;;;;;;5101654;28;20205;-30
2023/08/18 06:47:15;;;;;;;7.47;3.07;;;;;;;;;;5112902;28;20226;-31
2023/08/18 06:49:43;;;;;;;3.33;2.37;;;;;;;;;;5115889;28;20227;-31
2023/08/18 06:52:11;;;;;;;2.60;2.35;;;;;;;;;;5112240;28;20299;-30
2023/08/18 06:54:38;;;;;;;3.57;2.40;;;;;;;;;;5102993;28;20202;-29
2023/08/18 07:08:17;;;;;;;3.97;2.03;;;;;;;;;;5116549;28;20316;-32
2023/08/18 07:10:58;;;;;;;3.47;2.35;;;;;;;;;;5100705;28;20227;-33
2023/08/18 07:44:35;;;;;;;2.28;1.88;;;;;;;;;;5109758;27;20219;-34
2023/08/18 07:47:16;;;;;;;3.05;1.90;;;;;;;;;;5123182;27;20227;-33
2023/08/18 07:55:49;;;;;;;1.65;1.55;;;;;;;;;;5118907;27;20203;-32
2023/08/18 07:58:31;;;;;;;2.92;1.88;;;;;;;;;;5123027;27;20208;-35
2023/08/18 08:07:28;;;;;;;;;;;;;;;;;;;;;
2023/08/18 08:10:17;;;;;;;2.00;1.50;;;;;;;;;;5117651;27;20219;-35
2023/08/18 08:13:09;;;;;;;2.90;1.88;;;;;;;;;;5113788;27;20199;-31
2023/08/18 08:21:19;;;;;;;2.88;1.83;;;;;;;;;;5787885;22;20232;-29
2023/08/18 09:38:06;;;;;;;2.25;1.60;;;;;;;;;;5038038;28;20234;-34
2023/08/18 09:40:58;;;;;;;1.75;1.05;;;;;;;;;;5031290;28;20218;-30
2023/08/18 09:43:53;;;;;;;3.22;1.50;;;;;;;;;;5038629;28;20205;-33
2023/08/18 09:46:36;;;;;;;1.73;1.25;;;;;;;;;;5044570;28;20297;-34
2023/08/18 09:49:24;;;;;;;1.98;1.50;;;;;;;;;;5045544;28;20236;-33
2023/08/18 09:51:54;;;;;;;1.27;1.20;;;;;;;;;;5094660;22;20232;-35
2023/08/18 09:54:32;;;;;;;1.45;1.35;;;;;;;;;;5090562;28;20228;-32
2023/08/18 09:57:03;;;;;;;1.20;1.10;;;;;;;;;;5098816;28;20200;-34
2023/08/18 10:00:00;;;;;;;3.50;1.30;;;;;;;;;;5100569;22;20255;-34
2023/08/18 10:02:36;;;;;;;1.75;1.23;;;;;;;;;;5075867;28;20227;-31
2023/08/18 10:05:28;;;;;;;4.47;1.50;;;;;;;;;;5210178;22;20223;-31
2023/08/18 10:07:59;;;;;;;4.28;1.52;;;;;;;;;;5079060;28;20213;-32
2023/08/18 10:13:33;;;;;;;2.67;1.52;;;;;;;;;;5065781;28;20301;-31
2023/08/18 10:16:11;;;;;;;3.53;1.63;;;;;;;;;;5057922;28;20233;-33
2023/08/18 10:18:59;;;;;;;3.60;1.00;;;;;;;;;;5065838;28;20193;-32
2023/08/18 10:21:38;;;;;;;3.15;1.50;;;;;;;;;;5070846;28;20213;-30
2023/08/18 10:24:23;;;;;;;2.55;1.20;;;;;;;;;;5063259;28;20220;-33
2023/08/18 10:27:10;;;;;;;1.40;1.30;;;;;;;;;;5072392;28;20251;-31
2023/08/18 10:29:46;;;;;;;1.50;1.40;;;;;;;;;;5063455;28;20290;-33
2023/08/18 10:35:41;;;;;;;4.20;1.58;;;;;;;;;;5046521;28;20201;-33
2023/08/18 10:41:06;;;;;;;1.23;1.15;;;;;;;;;;5469684;22;20238;-33
2023/08/18 10:43:45;;;;;;;1.70;1.27;;;;;;;;;;5107667;28;20290;-33
2023/08/18 10:46:32;;;;;;;1.30;1.17;;;;;;;;;;5093290;28;20222;-31
2023/08/18 10:49:13;;;;;;;1.95;1.08;;;;;;;;;;5087417;28;20224;-30
2023/08/18 10:51:47;;;;;;;1.50;1.40;;;;;;;;;;5073453;28;20327;-32
2023/08/18 10:54:28;;;;;;;1.55;1.40;;;;;;;;;;5088092;28;20205;-33
2023/08/18 10:57:03;;;;;;;2.22;1.40;;;;;;;;;;5089179;28;20201;-33
2023/08/18 10:59:50;;;;;;;1.02;1.02;;;;;;;;;;5086302;28;20303;-32
2023/08/18 11:02:28;;;;;;;2.25;1.20;;;;;;;;;;5077041;28;20204;-31
2023/08/18 11:05:00;;;;;;;1.45;1.27;;;;;;;;;;5096701;28;20243;-32
2023/08/18 11:07:30;;;;;;;3.50;1.20;;;;;;;;;;5086853;28;20209;-32
2023/08/18 11:09:59;;;;;;;2.58;1.00;;;;;;;;;;5090848;28;20234;-33
2023/08/18 11:12:26;;;;;;;1.52;1.17;;;;;;;;;;5076246;28;20208;-31
2023/08/18 11:15:13;;;;;;;2.47;1.30;;;;;;;;;;5088777;28;20291;-30
2023/08/18 11:17:45;;;;;;;3.60;1.30;;;;;;;;;;5095309;28;20201;-31
2023/08/18 11:20:14;;;;;;;1.35;1.10;;;;;;;;;;5095798;28;20307;-32
2023/08/18 11:23:00;;;;;;;1.10;1.05;;;;;;;;;;5085310;28;20208;-31
2023/08/18 11:25:33;;;;;;;1.45;1.10;;;;;;;;;;5086153;28;20201;-32
2023/08/18 11:28:09;;;;;;;3.20;1.60;;;;;;;;;;5091701;28;20635;-29
2023/08/18 11:30:47;;;;;;;1.83;1.20;;;;;;;;;;5080312;28;20239;-31
2023/08/18 11:33:18;;;;;;;1.00;1.00;;;;;;;;;;5323536;22;20235;-40
2023/08/18 11:35:54;;;;;;;0.80;0.80;;;;;;;;;;5099659;28;20207;-41
2023/08/18 11:38:31;;;;;;;2.15;1.20;;;;;;;;;;5114312;28;20199;-35
2023/08/18 11:41:05;;;;;;;2.08;1.23;;;;;;;;;;5081215;28;20212;-40
2023/08/18 11:43:39;;;;;;;3.00;1.30;;;;;;;;;;5078716;28;20205;-36
2023/08/18 11:46:21;;;;;;;1.55;1.10;;;;;;;;;;5080988;28;20278;-38
2023/08/18 11:48:52;;;;;;;1.30;1.20;;;;;;;;;;5076432;28;20229;-33
2023/08/18 11:51:25;;;;;;;4.55;1.45;;;;;;;;;;5075340;28;20259;-41
2023/08/18 11:56:43;;;;;;;0.90;0.90;;;;;;;;;;5783935;22;20696;-34
2023/08/18 11:59:20;;;;;;;2.15;1.10;;;;;;;;;;5090762;28;20220;-30
2023/08/18 12:01:58;;;;;;;1.75;1.20;;;;;;;;;;5096067;28;20406;-31
2023/08/18 12:04:31;;;;;;;1.35;1.05;;;;;;;;;;5095409;28;20200;-31
2023/08/18 12:07:05;;;;;;;1.15;1.05;;;;;;;;;;5095057;28;20257;-33
2023/08/18 12:09:41;;;;;;;2.20;1.20;;;;;;;;;;5086233;28;20245;-33
2023/08/18 12:12:17;;;;;;;2.35;1.30;;;;;;;;;;5095510;28;20223;-34
2023/08/18 12:14:48;;;;;;;1.52;1.27;;;;;;;;;;5081746;28;20214;-31
2023/08/18 12:17:44;;;;;;;1.95;1.30;;;;;;;;;;5424524;22;20227;-30
2023/08/18 12:20:21;;;;;;;1.52;1.42;;;;;;;;;;5100297;28;20378;-30
2023/08/18 12:23:03;;;;;;;3.35;1.30;;;;;;;;;;5090976;28;20215;-29
2023/08/18 12:25:36;;;;;;;1.77;1.23;;;;;;;;;;5095155;28;20212;-31
2023/08/18 12:28:08;;;;;;;3.95;1.20;;;;;;;;;;5082244;28;20221;-30
2023/08/18 12:30:45;;;;;;;1.95;1.40;;;;;;;;;;5087245;28;20751;-33
2023/08/18 12:33:33;;;;;;;0.90;0.90;;;;;;;;;;5095127;28;20223;-32
2023/08/18 12:36:06;;;;;;;1.20;1.10;;;;;;;;;;5095511;28;20288;-30
2023/08/18 12:38:45;;;;;;;1.75;1.30;;;;;;;;;;5091098;28;20216;-32
2023/08/18 12:41:16;;;;;;;2.47;1.50;;;;;;;;;;5086416;28;20211;-29
2023/08/18 12:43:46;;;;;;;1.35;1.25;;;;;;;;;;5108404;22;20228;-30
2023/08/18 12:46:15;;;;;;;2.38;1.40;;;;;;;;;;5341017;22;20246;-31
2023/08/18 12:48:46;;;;;;;1.45;1.20;;;;;;;;;;5098084;28;20302;-30
2023/08/18 12:54:28;;;;;;;3.22;1.27;;;;;;;;;;5318013;22;20407;-31
2023/08/18 12:56:56;;;;;;;1.83;1.30;;;;;;;;;;5009217;28;20206;-34
2023/08/18 13:02:22;;;;;;;1.30;1.20;;;;;;;;;;5010737;28;20211;-32
2023/08/18 13:04:53;;;;;;;1.98;1.30;;;;;;;;;;5011171;28;20646;-32
2023/08/18 13:09:53;;;;;;;1.85;1.27;;;;;;;;;;5058050;28;20212;-30
2023/08/18 13:12:21;;;;;;;1.83;1.50;;;;;;;;;;5067161;28;20696;-29
2023/08/18 13:14:48;;;;;;;3.17;1.40;;;;;;;;;;5056692;28;20211;-33
2023/08/18 13:17:15;;;;;;;1.80;1.45;;;;;;;;;;5066392;28;20658;-29
2023/08/18 13:19:42;;;;;;;1.60;1.50;;;;;;;;;;5068171;28;20716;-30
2023/08/18 13:22:09;;;;;;;2.25;1.65;;;;;;;;;;5063924;28;20208;-34
2023/08/18 13:24:36;;;;;;;4.00;1.70;;;;;;;;;;5068256;28;20659;-29
2023/08/18 13:27:05;;;;;;;1.45;1.35;;;;;;;;;;5068627;28;20197;-31
2023/08/18 13:29:32;;;;;;;1.40;1.30;;;;;;;;;;5064537;28;20217;-30
2023/08/18 13:32:00;;;;;;;4.88;1.58;;;;;;;;;;5066459;28;20207;-31
2023/08/18 13:34:27;;;;;;;4.72;1.58;;;;;;;;;;5067028;28;20205;-31
2023/08/18 13:36:54;;;;;;;2.22;1.80;;;;;;;;;;5066620;28;20208;-29
2023/08/18 13:39:21;;;;;;;1.73;1.40;;;;;;;;;;5053648;28;20586;-29
2023/08/18 13:41:48;;;;;;;2.47;1.30;;;;;;;;;;5060484;28;20513;-34
2023/08/18 13:44:16;;;;;;;2.17;1.55;;;;;;;;;;5058388;28;20197;-32
2023/08/18 13:46:44;;;;;;;2.35;1.50;;;;;;;;;;5065639;28;20202;-33
2023/08/18 13:49:11;;;;;;;2.65;1.25;;;;;;;;;;5066488;28;20225;-28
2023/08/18 13:51:38;;;;;;;2.00;1.45;;;;;;;;;;5066969;28;20224;-32
2023/08/18 13:54:06;;;;;;;4.88;1.60;;;;;;;;;;5057433;28;20255;-29
2023/08/18 13:56:33;;;;;;;4.30;1.30;;;;;;;;;;5057387;28;20197;-32
2023/08/18 13:59:00;;;;;;;5.53;1.20;;;;;;;;;;5058483;28;20228;-32
2023/08/18 14:01:29;;;;;;;2.28;1.40;;;;;;;;;;5064799;28;20209;-33
2023/08/18 14:03:56;;;;;;;1.83;1.50;;;;;;;;;;5061821;28;20202;-32
2023/08/18 14:06:23;;;;;;;2.90;1.30;;;;;;;;;;5048618;28;20206;-31
2023/08/18 14:08:50;;;;;;;2.90;1.60;;;;;;;;;;5073775;28;20231;-28
2023/08/18 14:11:17;;;;;;;3.88;1.70;;;;;;;;;;5093059;28;20666;-32
2023/08/18 14:13:44;;;;;;;3.30;1.60;;;;;;;;;;5084180;28;20220;-31
2023/08/18 14:16:12;;;;;;;3.53;1.70;;;;;;;;;;5092055;28;20201;-29
2023/08/18 14:18:40;;;;;;;3.15;1.48;;;;;;;;;;5093026;28;20228;-34
2023/08/18 14:21:07;;;;;;;5.38;1.50;;;;;;;;;;5087024;28;20208;-29
2023/08/18 14:23:36;;;;;;;3.00;1.52;;;;;;;;;;5084203;28;20284;-31
2023/08/18 14:26:03;;;;;;;1.98;1.40;;;;;;;;;;5086772;28;20287;-31
2023/08/18 14:28:30;;;;;;;1.30;1.20;;;;;;;;;;5094027;28;20226;-31
2023/08/18 14:30:57;;;;;;;3.35;1.33;;;;;;;;;;5092592;28;20200;-28
2023/08/18 14:33:24;;;;;;;3.50;1.17;;;;;;;;;;5092574;28;20231;-31
2023/08/18 14:35:53;;;;;;;1.92;1.55;;;;;;;;;;5093066;28;20216;-31
2023/08/18 14:38:20;;;;;;;2.25;1.42;;;;;;;;;;5087325;28;20219;-33
2023/08/18 14:40:47;;;;;;;1.85;1.70;;;;;;;;;;5086697;28;20220;-32
2023/08/18 14:43:14;;;;;;;2.35;1.33;;;;;;;;;;5084700;28;20201;-31
2023/08/18 14:45:41;;;;;;;2.85;1.40;;;;;;;;;;5088411;28;20204;-33
2023/08/18 14:48:08;;;;;;;2.38;1.45;;;;;;;;;;5091911;28;20204;-30
2023/08/18 14:50:35;;;;;;;5.68;1.90;;;;;;;;;;5093204;28;20230;-31
2023/08/18 14:53:04;;;;;;;3.55;1.77;;;;;;;;;;5084605;28;20220;-28
2023/08/18 14:55:31;;;;;;;4.78;1.50;;;;;;;;;;5092556;28;20203;-33
2023/08/18 14:57:58;;;;;;;2.28;1.63;;;;;;;;;;5090060;28;20212;-32
2023/08/18 15:00:26;;;;;;;3.08;1.83;;;;;;;;;;5084945;28;20335;-31
2023/08/18 15:02:53;;;;;;;3.33;1.77;;;;;;;;;;5093318;28;20192;-32
2023/08/18 15:05:20;;;;;;;1.48;1.25;;;;;;;;;;5092387;28;20204;-31
2023/08/18 15:07:47;;;;;;;3.00;1.50;;;;;;;;;;5086329;28;20216;-30
2023/08/18 15:10:15;;;;;;;4.25;1.52;;;;;;;;;;5090865;28;20224;-29
2023/08/18 15:12:43;;;;;;;2.75;1.55;;;;;;;;;;5088789;28;20204;-30
2023/08/18 15:15:11;;;;;;;2.63;1.75;;;;;;;;;;5090321;28;20207;-32
2023/08/18 15:17:38;;;;;;;4.75;1.38;;;;;;;;;;5090589;28;20200;-28
2023/08/18 15:20:06;;;;;;;3.22;1.50;;;;;;;;;;5092053;28;20251;-33
2023/08/18 15:22:34;;;;;;;2.10;1.80;;;;;;;;;;5080680;28;20208;-29
2023/08/18 15:25:01;;;;;;;2.72;1.58;;;;;;;;;;5086871;28;20205;-32
2023/08/18 15:27:29;;;;;;;2.65;1.50;;;;;;;;;;5091154;28;20201;-33
2023/08/18 15:29:56;;;;;;;1.92;1.48;;;;;;;;;;5084854;28;20678;-31
2023/08/18 15:32:23;;;;;;;2.42;1.48;;;;;;;;;;5089898;28;20301;-31
2023/08/18 15:34:50;;;;;;;2.05;1.50;;;;;;;;;;5091838;28;20224;-30
2023/08/18 15:37:18;;;;;;;4.13;1.45;;;;;;;;;;5083866;28;20333;-33
2023/08/18 15:39:45;;;;;;;4.35;1.65;;;;;;;;;;5083675;28;20216;-34
2023/08/18 15:42:12;;;;;;;2.83;1.27;;;;;;;;;;5091540;28;20205;-28
2023/08/18 15:44:40;;;;;;;8.27;1.88;;;;;;;;;;5086307;28;20197;-33
2023/08/18 15:47:07;;;;;;;4.57;2.75;;;;;;;;;;5090533;28;20210;-32
2023/08/18 15:49:34;;;;;;;2.20;1.63;;;;;;;;;;5071206;28;20284;-32
2023/08/18 15:52:01;;;;;;;4.55;1.60;;;;;;;;;;5069554;28;20251;-28
2023/08/18 15:54:29;;;;;;;3.20;1.90;;;;;;;;;;5084109;28;20236;-30
2023/08/18 16:39:48;;;;;;;2.33;1.73;;;;;;;;;;5121470;27;20537;-36
2023/08/18 16:42:15;;;;;;;7.53;2.40;;;;;;;;;;5105602;28;20206;-37
2023/08/18 16:44:42;;;;;;;3.33;1.90;;;;;;;;;;5088660;28;20212;-35
2023/08/18 16:47:09;;;;;;;3.45;2.00;;;;;;;;;;5089955;28;20572;-35
2023/08/18 16:49:37;;;;;;;2.40;1.40;;;;;;;;;;5107708;28;20199;-39
2023/08/18 16:52:04;;;;;;;3.03;1.63;;;;;;;;;;5102563;28;20310;-34
2023/08/18 16:54:31;;;;;;;5.35;1.98;;;;;;;;;;5104002;28;20205;-36
2023/08/18 16:57:00;;;;;;;4.05;2.38;;;;;;;;;;5086984;28;20211;-41
2023/08/18 16:59:27;;;;;;;3.65;1.70;;;;;;;;;;5091013;28;20200;-34
2023/08/18 17:01:55;;;;;;;1.90;1.80;;;;;;;;;;5100028;28;20216;-37
2023/08/18 17:04:22;;;;;;;7.13;2.15;;;;;;;;;;5105997;28;20196;-33
2023/08/18 17:06:49;;;;;;;4.07;1.80;;;;;;;;;;5107135;28;20207;-39
2023/08/18 17:09:16;;;;;;;1.92;1.75;;;;;;;;;;5101559;28;20206;-35
2023/08/18 17:11:43;;;;;;;3.60;1.50;;;;;;;;;;5093667;28;20213;-38
2023/08/18 17:14:12;;;;;;;2.85;1.63;;;;;;;;;;5099207;28;20200;-34
2023/08/18 17:16:39;;;;;;;2.83;1.70;;;;;;;;;;5106888;28;20286;-37
2023/08/18 17:19:06;;;;;;;2.90;1.60;;;;;;;;;;5106699;28;20220;-34
2023/08/18 17:21:37;;;;;;;2.97;1.45;;;;;;;;;;5101918;28;20683;-39
2023/08/18 17:24:04;;;;;;;4.85;1.83;;;;;;;;;;5102640;28;20196;-37
2023/08/18 17:26:31;;;;;;;3.97;2.15;;;;;;;;;;5106988;28;20200;-36
2023/08/18 17:28:58;;;;;;;5.40;3.53;;;;;;;;;;5100765;28;20297;-35
2023/08/18 17:31:27;;;;;;;6.47;3.22;;;;;;;;;;5094394;28;20264;-33
2023/08/18 17:33:54;;;;;;;5.38;3.42;;;;;;;;;;5092102;28;20200;-40
2023/08/18 17:36:21;;;;;;;8.80;5.80;;;;;;;;;;5087176;28;20781;-38
2023/08/18 17:38:48;;;;;;;9.10;5.60;;;;;;;;;;5100787;28;20239;-37
2023/08/18 17:41:15;;;;;;;8.85;6.10;;;;;;;;;;5075318;28;20217;-31
2023/08/18 17:43:43;;;;;;;9.75;5.70;;;;;;;;;;5075000;28;20208;-32
2023/08/18 17:46:10;;;;;;;6.82;4.30;;;;;;;;;;5080081;28;20691;-31
2023/08/18 17:48:39;;;;;;;3.63;2.90;;;;;;;;;;5084877;28;20320;-31
2023/08/18 17:51:06;;;;;;;4.55;3.50;;;;;;;;;;5088289;28;20227;-36
2023/08/18 17:53:33;;;;;;;4.97;2.30;;;;;;;;;;5086031;28;20269;-41
2023/08/18 17:56:00;;;;;;;4.07;3.00;;;;;;;;;;5093010;28;20196;-37
2023/08/18 17:58:28;;;;;;;8.88;5.10;;;;;;;;;;5086044;28;20462;-35
2023/08/18 18:00:55;;;;;;;4.68;4.18;;;;;;;;;;5078919;28;20226;-37
2023/08/18 18:03:23;;;;;;;2.78;2.22;;;;;;;;;;5086332;28;20204;-35
2023/08/18 18:05:51;;;;;;;5.43;1.90;;;;;;;;;;5095163;28;20211;-32
2023/08/18 18:08:19;;;;;;;5.55;3.58;;;;;;;;;;5080239;28;20201;-31
2023/08/18 18:10:47;;;;;;;4.93;3.65;;;;;;;;;;5094491;28;20314;-41
2023/08/18 18:13:14;;;;;;;5.65;2.92;;;;;;;;;;5078241;28;20200;-38
2023/08/18 18:15:42;;;;;;;4.65;3.00;;;;;;;;;;5084215;28;20201;-33
2023/08/18 18:18:09;;;;;;;3.33;3.03;;;;;;;;;;5080879;28;20384;-35
2023/08/18 18:20:36;;;;;;;3.28;2.80;;;;;;;;;;5090865;28;20228;-41
2023/08/18 18:23:04;;;;;;;3.33;2.90;;;;;;;;;;5076157;28;20196;-38
2023/08/18 18:25:32;;;;;;;4.25;3.00;;;;;;;;;;5072856;28;20197;-39
2023/08/18 18:27:59;;;;;;;5.22;2.38;;;;;;;;;;5074724;28;20209;-37
2023/08/18 18:30:26;;;;;;;4.15;2.10;;;;;;;;;;5083960;28;20231;-40
2023/08/18 18:32:53;;;;;;;3.15;2.17;;;;;;;;;;5080316;28;20199;-36
2023/08/18 18:35:21;;;;;;;2.70;2.22;;;;;;;;;;5091148;28;20210;-37
2023/08/18 18:37:48;;;;;;;3.33;2.42;;;;;;;;;;5077894;28;20209;-34
2023/08/18 18:40:18;;;;;;;3.90;2.45;;;;;;;;;;5074733;28;20263;-39
2023/08/18 18:42:46;;;;;;;3.42;2.22;;;;;;;;;;5091677;28;20260;-31
2023/08/18 18:45:13;;;;;;;4.88;2.20;;;;;;;;;;5084196;28;20231;-34